Time;durP1;ratioP1;P1;durP2;ratioP2;P2;SDS_P1;SDS_P2;PMS_P1;PMS_P2;Temp;Humidity;BMP_temperature;BMP_pressure;BME280_temperature;BME280_humidity;BME280_pressure;Samples;Min_cycle;Max_cycle;Signal;HPM_P1;HPM_P2
2021/06/12 00:00:26;;;;;;;0.00;0.00;;;;;;;;;;5090859;28;20776;-68
2021/06/12 00:02:51;;;;;;;0.00;0.00;;;;;;;;;;5081989;28;20582;-68
2021/06/12 00:05:16;;;;;;;0.00;0.00;;;;;;;;;;5090196;28;20063;-68
2021/06/12 00:07:41;;;;;;;0.00;0.00;;;;;;;;;;5062386;28;20369;-68
2021/06/12 00:10:26;;;;;;;0.00;0.00;;;;;;;;;;5077117;28;20261;-68
2021/06/12 00:12:51;;;;;;;0.00;0.00;;;;;;;;;;5062348;28;20474;-68
2021/06/12 00:15:17;;;;;;;0.00;0.00;;;;;;;;;;5076196;28;20032;-69
2021/06/12 00:17:43;;;;;;;0.00;0.00;;;;;;;;;;5089015;28;20156;-69
2021/06/12 00:20:09;;;;;;;0.00;0.00;;;;;;;;;;5082620;28;20020;-69
2021/06/12 00:22:34;;;;;;;0.00;0.00;;;;;;;;;;5083394;28;20024;-68
2021/06/12 00:24:59;;;;;;;0.00;0.00;;;;;;;;;;5087523;28;20456;-69
2021/06/12 00:27:24;;;;;;;0.00;0.00;;;;;;;;;;5068264;28;20254;-69
2021/06/12 00:29:50;;;;;;;0.00;0.00;;;;;;;;;;5081776;28;20529;-69
2021/06/12 00:32:15;;;;;;;0.00;0.00;;;;;;;;;;5084104;28;20775;-69
2021/06/12 00:34:40;;;;;;;0.00;0.00;;;;;;;;;;5094345;28;20718;-69
2021/06/12 00:37:06;;;;;;;0.00;0.00;;;;;;;;;;5093732;28;20308;-69
2021/06/12 00:39:31;;;;;;;0.00;0.00;;;;;;;;;;5068885;28;20456;-69
2021/06/12 00:41:56;;;;;;;0.00;0.00;;;;;;;;;;5094196;28;20051;-68
2021/06/12 00:44:21;;;;;;;0.00;0.00;;;;;;;;;;5076133;28;20020;-68
2021/06/12 00:46:46;;;;;;;0.00;0.00;;;;;;;;;;5065792;28;20709;-68
2021/06/12 00:49:12;;;;;;;0.00;0.00;;;;;;;;;;5093488;28;20357;-68
2021/06/12 00:51:37;;;;;;;0.00;0.00;;;;;;;;;;5093812;28;20368;-68
2021/06/12 00:54:02;;;;;;;0.00;0.00;;;;;;;;;;5088896;28;20265;-68
2021/06/12 00:56:27;;;;;;;0.00;0.00;;;;;;;;;;5094675;28;20274;-69
2021/06/12 00:58:52;;;;;;;0.00;0.00;;;;;;;;;;5077011;28;20070;-69
2021/06/12 01:01:19;;;;;;;0.00;0.00;;;;;;;;;;5085138;28;20284;-68
2021/06/12 01:03:45;;;;;;;0.00;0.00;;;;;;;;;;5086382;28;20008;-68
2021/06/12 01:06:11;;;;;;;0.00;0.00;;;;;;;;;;5094101;28;20086;-68
2021/06/12 01:08:36;;;;;;;0.00;0.00;;;;;;;;;;5081396;28;20021;-68
2021/06/12 01:11:02;;;;;;;0.00;0.00;;;;;;;;;;5068724;28;20024;-68
2021/06/12 01:13:33;;;;;;;0.00;0.00;;;;;;;;;;5083324;28;20578;-68
2021/06/12 01:16:02;;;;;;;0.00;0.00;;;;;;;;;;5093535;28;20051;-68
2021/06/12 01:18:31;;;;;;;0.00;0.00;;;;;;;;;;5093393;28;20103;-68
2021/06/12 01:20:59;;;;;;;0.00;0.00;;;;;;;;;;5066643;28;20020;-68
2021/06/12 01:23:43;;;;;;;0.00;0.00;;;;;;;;;;5093581;28;20020;-68
2021/06/12 01:26:11;;;;;;;0.00;0.00;;;;;;;;;;5093251;28;20434;-68
2021/06/12 01:28:36;;;;;;;0.00;0.00;;;;;;;;;;5083591;28;20023;-68
2021/06/12 01:31:01;;;;;;;0.00;0.00;;;;;;;;;;5092837;28;20024;-68
2021/06/12 01:33:27;;;;;;;0.00;0.00;;;;;;;;;;5088548;28;20508;-68
2021/06/12 01:35:52;;;;;;;0.00;0.00;;;;;;;;;;5077636;28;20049;-68
2021/06/12 01:38:22;;;;;;;0.00;0.00;;;;;;;;;;5068529;28;20103;-68
2021/06/12 01:40:47;;;;;;;0.00;0.00;;;;;;;;;;5092969;28;20044;-68
2021/06/12 01:43:13;;;;;;;0.00;0.00;;;;;;;;;;5084010;28;20066;-67
2021/06/12 01:45:42;;;;;;;0.00;0.00;;;;;;;;;;5079972;28;20298;-68
2021/06/12 01:48:08;;;;;;;0.00;0.00;;;;;;;;;;5062874;28;20039;-68
2021/06/12 01:50:33;;;;;;;0.00;0.00;;;;;;;;;;5065438;28;20028;-68
2021/06/12 01:52:58;;;;;;;0.00;0.00;;;;;;;;;;5063669;28;20024;-68
2021/06/12 01:55:26;;;;;;;0.00;0.00;;;;;;;;;;5088506;28;20040;-68
2021/06/12 01:57:51;;;;;;;0.00;0.00;;;;;;;;;;5082196;28;20027;-68
2021/06/12 02:00:17;;;;;;;0.00;0.00;;;;;;;;;;5082991;28;20027;-68
2021/06/12 02:02:42;;;;;;;0.00;0.00;;;;;;;;;;5085112;28;20546;-65
2021/06/12 02:05:18;;;;;;;0.00;0.00;;;;;;;;;;5083144;28;20028;-68
2021/06/12 02:07:44;;;;;;;0.00;0.00;;;;;;;;;;5063924;28;20027;-68
2021/06/12 02:10:09;;;;;;;0.00;0.00;;;;;;;;;;5081575;28;20020;-68
2021/06/12 02:12:34;;;;;;;0.00;0.00;;;;;;;;;;5067308;28;20115;-68
2021/06/12 02:15:00;;;;;;;0.00;0.00;;;;;;;;;;5085565;28;20020;-68
2021/06/12 02:17:25;;;;;;;0.00;0.00;;;;;;;;;;5079977;28;20027;-68
2021/06/12 02:19:50;;;;;;;0.00;0.00;;;;;;;;;;5080801;28;20043;-68
2021/06/12 02:22:15;;;;;;;0.00;0.00;;;;;;;;;;5073885;28;20020;-69
2021/06/12 02:24:41;;;;;;;0.00;0.00;;;;;;;;;;5083421;28;20020;-67
2021/06/12 02:27:07;;;;;;;0.00;0.00;;;;;;;;;;5085258;28;20634;-67
2021/06/12 02:29:32;;;;;;;0.00;0.00;;;;;;;;;;5074238;28;20024;-67
2021/06/12 02:32:07;;;;;;;0.00;0.00;;;;;;;;;;5063237;28;20024;-67
2021/06/12 02:34:33;;;;;;;0.00;0.00;;;;;;;;;;5078653;28;20752;-68
2021/06/12 02:36:59;;;;;;;0.00;0.00;;;;;;;;;;5079556;28;20048;-68
2021/06/12 02:39:24;;;;;;;0.00;0.00;;;;;;;;;;5078223;28;20024;-67
2021/06/12 02:41:49;;;;;;;0.00;0.00;;;;;;;;;;5090862;28;20020;-67
2021/06/12 02:44:14;;;;;;;0.00;0.00;;;;;;;;;;5077917;28;20020;-68
2021/06/12 02:46:40;;;;;;;0.00;0.00;;;;;;;;;;5079355;28;20468;-68
2021/06/12 02:49:06;;;;;;;0.00;0.00;;;;;;;;;;5066242;28;20273;-67
2021/06/12 02:51:35;;;;;;;0.00;0.00;;;;;;;;;;5081784;28;20563;-67
2021/06/12 02:54:00;;;;;;;0.00;0.00;;;;;;;;;;5065628;28;20020;-67
2021/06/12 02:56:26;;;;;;;0.00;0.00;;;;;;;;;;5081260;28;20475;-67
2021/06/12 02:58:52;;;;;;;0.00;0.00;;;;;;;;;;5067836;28;20270;-67
2021/06/12 03:01:17;;;;;;;0.00;0.00;;;;;;;;;;5067251;28;20056;-68
2021/06/12 03:03:42;;;;;;;0.00;0.00;;;;;;;;;;5072910;28;20439;-67
2021/06/12 03:06:08;;;;;;;0.00;0.00;;;;;;;;;;5066605;28;20468;-67
2021/06/12 03:08:37;;;;;;;0.00;0.00;;;;;;;;;;5073029;28;20077;-68
2021/06/12 03:11:03;;;;;;;0.00;0.00;;;;;;;;;;5077038;28;20024;-68
2021/06/12 03:13:28;;;;;;;0.00;0.00;;;;;;;;;;5076897;28;20030;-68
2021/06/12 03:15:54;;;;;;;0.00;0.00;;;;;;;;;;5080444;28;20453;-67
2021/06/12 03:18:20;;;;;;;0.00;0.00;;;;;;;;;;5067751;28;20035;-68
2021/06/12 03:20:45;;;;;;;0.00;0.00;;;;;;;;;;5081550;28;20065;-68
2021/06/12 03:23:10;;;;;;;0.00;0.00;;;;;;;;;;5070339;28;20431;-68
2021/06/12 03:25:36;;;;;;;0.00;0.00;;;;;;;;;;5091293;28;20273;-68
2021/06/12 03:28:01;;;;;;;0.00;0.00;;;;;;;;;;5064648;28;20293;-67
2021/06/12 03:30:26;;;;;;;0.00;0.00;;;;;;;;;;5064604;28;20101;-68
2021/06/12 03:32:51;;;;;;;0.00;0.00;;;;;;;;;;5080987;28;20262;-68
2021/06/12 03:35:17;;;;;;;0.00;0.00;;;;;;;;;;5081202;28;20270;-68
2021/06/12 03:37:42;;;;;;;0.00;0.00;;;;;;;;;;5062049;28;20411;-68
2021/06/12 03:40:07;;;;;;;0.00;0.00;;;;;;;;;;5079793;28;20371;-68
2021/06/12 03:42:33;;;;;;;0.00;0.00;;;;;;;;;;5061683;28;20268;-68
2021/06/12 03:44:58;;;;;;;0.00;0.00;;;;;;;;;;5090751;28;20782;-68
2021/06/12 03:47:24;;;;;;;0.00;0.00;;;;;;;;;;5076484;28;20289;-68
2021/06/12 03:49:50;;;;;;;0.10;0.00;;;;;;;;;;5081502;28;20028;-68
2021/06/12 03:52:15;;;;;;;0.00;0.00;;;;;;;;;;5081464;28;20028;-68
2021/06/12 03:54:40;;;;;;;0.00;0.00;;;;;;;;;;5072417;28;20421;-68
2021/06/12 03:57:06;;;;;;;0.00;0.00;;;;;;;;;;5085281;28;20316;-67
2021/06/12 03:59:31;;;;;;;0.00;0.00;;;;;;;;;;5094899;28;20113;-67
2021/06/12 04:01:56;;;;;;;0.00;0.00;;;;;;;;;;5082211;28;20091;-67
2021/06/12 04:04:23;;;;;;;0.00;0.00;;;;;;;;;;5084755;28;20024;-68
2021/06/12 04:06:49;;;;;;;0.00;0.00;;;;;;;;;;5085540;28;20020;-68
2021/06/12 04:09:14;;;;;;;0.00;0.00;;;;;;;;;;5068181;28;20627;-68
2021/06/12 04:11:39;;;;;;;0.00;0.00;;;;;;;;;;5080838;28;20028;-67
2021/06/12 04:14:05;;;;;;;0.00;0.00;;;;;;;;;;5066466;28;20277;-67
2021/06/12 04:16:30;;;;;;;0.00;0.00;;;;;;;;;;5084928;28;20112;-67
2021/06/12 04:18:55;;;;;;;0.00;0.00;;;;;;;;;;5086440;28;20261;-67
2021/06/12 04:21:20;;;;;;;0.00;0.00;;;;;;;;;;5063011;28;20081;-67
2021/06/12 04:23:45;;;;;;;0.00;0.00;;;;;;;;;;5071886;28;20772;-68
2021/06/12 04:26:11;;;;;;;0.00;0.00;;;;;;;;;;5086024;28;20281;-68
2021/06/12 04:28:36;;;;;;;0.00;0.00;;;;;;;;;;5094659;28;20039;-67
2021/06/12 04:31:01;;;;;;;0.00;0.00;;;;;;;;;;5093546;28;20288;-67
2021/06/12 04:33:26;;;;;;;0.00;0.00;;;;;;;;;;5094151;28;20399;-67
2021/06/12 04:35:51;;;;;;;0.00;0.00;;;;;;;;;;5076753;28;20101;-67
2021/06/12 04:38:17;;;;;;;0.00;0.00;;;;;;;;;;5068688;28;20046;-67
2021/06/12 04:40:42;;;;;;;0.00;0.00;;;;;;;;;;5094138;28;20262;-67
2021/06/12 04:43:09;;;;;;;0.00;0.00;;;;;;;;;;5075792;28;20262;-68
2021/06/12 04:45:35;;;;;;;0.00;0.00;;;;;;;;;;5080084;28;20446;-67
2021/06/12 04:48:01;;;;;;;0.00;0.00;;;;;;;;;;5093783;28;20031;-67
2021/06/12 04:50:28;;;;;;;0.00;0.00;;;;;;;;;;5085091;28;20032;-68
2021/06/12 04:52:53;;;;;;;0.00;0.00;;;;;;;;;;5084763;28;20048;-67
2021/06/12 04:55:18;;;;;;;0.00;0.00;;;;;;;;;;5095216;28;20055;-67
2021/06/12 04:57:43;;;;;;;0.00;0.00;;;;;;;;;;5093894;28;20020;-68
2021/06/12 05:00:09;;;;;;;0.00;0.00;;;;;;;;;;5084440;28;20015;-68
2021/06/12 05:02:34;;;;;;;0.00;0.00;;;;;;;;;;5080130;28;20055;-68
2021/06/12 05:05:00;;;;;;;0.00;0.00;;;;;;;;;;5063865;28;20461;-68
2021/06/12 05:07:25;;;;;;;0.00;0.00;;;;;;;;;;5085578;28;20056;-68
2021/06/12 05:09:50;;;;;;;0.00;0.00;;;;;;;;;;5066856;28;20031;-68
2021/06/12 05:12:15;;;;;;;0.00;0.00;;;;;;;;;;5093167;28;20675;-68
2021/06/12 05:14:43;;;;;;;0.00;0.00;;;;;;;;;;5083581;28;20348;-68
2021/06/12 05:17:09;;;;;;;0.00;0.00;;;;;;;;;;5082929;28;20124;-68
2021/06/12 05:19:35;;;;;;;0.00;0.00;;;;;;;;;;5084112;28;20389;-68
2021/06/12 05:22:00;;;;;;;0.00;0.00;;;;;;;;;;5084318;28;20047;-67
2021/06/12 05:24:25;;;;;;;0.00;0.00;;;;;;;;;;5093280;28;20258;-68
2021/06/12 05:26:50;;;;;;;0.00;0.00;;;;;;;;;;5082173;28;20274;-69
2021/06/12 05:29:15;;;;;;;0.00;0.00;;;;;;;;;;5081186;28;20036;-69
2021/06/12 05:31:41;;;;;;;0.00;0.00;;;;;;;;;;5083248;28;20258;-68
2021/06/12 05:34:06;;;;;;;0.00;0.00;;;;;;;;;;5083718;28;20039;-68
2021/06/12 05:36:31;;;;;;;0.00;0.00;;;;;;;;;;5078089;28;20040;-68
2021/06/12 05:38:57;;;;;;;0.00;0.00;;;;;;;;;;5072708;28;20024;-68
2021/06/12 05:41:22;;;;;;;0.00;0.00;;;;;;;;;;5050575;28;20033;-68
2021/06/12 05:43:47;;;;;;;0.00;0.00;;;;;;;;;;5055024;28;20028;-68
2021/06/12 05:46:12;;;;;;;0.00;0.00;;;;;;;;;;5061197;28;20743;-68
2021/06/12 05:48:39;;;;;;;0.00;0.00;;;;;;;;;;5072231;28;20277;-68
2021/06/12 05:51:05;;;;;;;0.00;0.00;;;;;;;;;;5067060;28;20047;-68
2021/06/12 05:53:30;;;;;;;0.00;0.00;;;;;;;;;;5069736;28;20020;-68
2021/06/12 05:55:55;;;;;;;0.00;0.00;;;;;;;;;;5071056;28;20016;-68
2021/06/12 05:58:20;;;;;;;0.00;0.00;;;;;;;;;;5070642;28;20283;-67
2021/06/12 06:00:45;;;;;;;0.00;0.00;;;;;;;;;;5070579;28;20468;-67
2021/06/12 06:03:10;;;;;;;0.00;0.00;;;;;;;;;;5071817;28;20396;-67
2021/06/12 06:05:36;;;;;;;0.00;0.00;;;;;;;;;;5069455;28;20287;-67
2021/06/12 06:08:01;;;;;;;0.00;0.00;;;;;;;;;;5071018;28;20667;-67
2021/06/12 06:10:26;;;;;;;0.00;0.00;;;;;;;;;;5072252;28;20666;-67
2021/06/12 06:12:52;;;;;;;0.00;0.00;;;;;;;;;;5069980;28;20024;-68
2021/06/12 06:15:17;;;;;;;0.00;0.00;;;;;;;;;;5069748;28;20040;-67
2021/06/12 06:17:42;;;;;;;0.00;0.00;;;;;;;;;;5072578;28;20025;-69
2021/06/12 06:20:08;;;;;;;0.00;0.00;;;;;;;;;;5072940;28;20065;-69
2021/06/12 06:22:33;;;;;;;0.00;0.00;;;;;;;;;;5057243;28;20028;-69
2021/06/12 06:24:59;;;;;;;0.00;0.00;;;;;;;;;;5074962;28;20016;-69
2021/06/12 06:27:24;;;;;;;0.00;0.00;;;;;;;;;;5073487;28;20019;-69
2021/06/12 06:29:49;;;;;;;0.00;0.00;;;;;;;;;;5073599;28;20103;-69
2021/06/12 06:32:14;;;;;;;0.00;0.00;;;;;;;;;;5072933;28;20020;-70
2021/06/12 06:34:39;;;;;;;0.00;0.00;;;;;;;;;;5071832;28;20023;-70
2021/06/12 06:37:05;;;;;;;0.00;0.00;;;;;;;;;;5080409;28;20036;-71
2021/06/12 06:39:30;;;;;;;0.00;0.00;;;;;;;;;;5093374;28;20016;-71
2021/06/12 06:41:56;;;;;;;0.00;0.00;;;;;;;;;;5082507;28;20126;-72
2021/06/12 06:44:22;;;;;;;0.00;0.00;;;;;;;;;;5068825;28;20024;-72
2021/06/12 06:46:47;;;;;;;0.00;0.00;;;;;;;;;;5084236;28;20047;-72
2021/06/12 06:49:12;;;;;;;0.00;0.00;;;;;;;;;;5074986;28;20024;-73
2021/06/12 06:51:37;;;;;;;0.00;0.00;;;;;;;;;;5065494;28;20023;-71
2021/06/12 06:54:03;;;;;;;0.00;0.00;;;;;;;;;;5082545;28;20104;-72
2021/06/12 06:56:28;;;;;;;0.00;0.00;;;;;;;;;;5082441;28;20032;-72
2021/06/12 06:58:53;;;;;;;0.00;0.00;;;;;;;;;;5082514;28;20483;-71
2021/06/12 07:01:18;;;;;;;0.00;0.00;;;;;;;;;;5092253;28;20103;-72
2021/06/12 07:03:44;;;;;;;0.00;0.00;;;;;;;;;;5083146;28;20106;-71
2021/06/12 07:06:09;;;;;;;0.00;0.00;;;;;;;;;;5092441;28;20345;-71
2021/06/12 07:08:34;;;;;;;0.00;0.00;;;;;;;;;;5085195;28;20736;-72
2021/06/12 07:10:59;;;;;;;0.00;0.00;;;;;;;;;;5068163;28;20008;-72
2021/06/12 07:13:25;;;;;;;0.00;0.00;;;;;;;;;;5081479;28;20016;-72
2021/06/12 07:15:50;;;;;;;0.00;0.00;;;;;;;;;;5082001;28;20038;-71
2021/06/12 07:18:15;;;;;;;0.00;0.00;;;;;;;;;;5065998;28;20059;-71
2021/06/12 07:20:43;;;;;;;0.00;0.00;;;;;;;;;;5083717;28;20101;-71
2021/06/12 07:23:09;;;;;;;0.00;0.00;;;;;;;;;;5065896;28;20467;-71
2021/06/12 07:25:34;;;;;;;0.00;0.00;;;;;;;;;;5064541;28;20024;-70
2021/06/12 07:27:59;;;;;;;0.00;0.00;;;;;;;;;;5091406;28;20609;-71
2021/06/12 07:30:25;;;;;;;0.00;0.00;;;;;;;;;;5065308;28;20095;-70
2021/06/12 07:32:50;;;;;;;0.00;0.00;;;;;;;;;;5085821;28;20474;-71
2021/06/12 07:35:15;;;;;;;0.00;0.00;;;;;;;;;;5078672;28;20038;-70
2021/06/12 07:37:43;;;;;;;0.00;0.00;;;;;;;;;;5050020;28;20072;-70
2021/06/12 07:40:09;;;;;;;0.00;0.00;;;;;;;;;;5090838;28;20059;-72
2021/06/12 07:42:34;;;;;;;0.00;0.00;;;;;;;;;;5083137;28;20298;-71
2021/06/12 07:44:59;;;;;;;0.00;0.00;;;;;;;;;;5080072;28;20023;-71
2021/06/12 07:47:25;;;;;;;0.00;0.00;;;;;;;;;;5081449;28;20527;-70
2021/06/12 07:49:50;;;;;;;0.00;0.00;;;;;;;;;;5093056;28;20353;-72
2021/06/12 07:52:15;;;;;;;0.00;0.00;;;;;;;;;;5065307;28;20365;-72
2021/06/12 07:54:40;;;;;;;0.00;0.00;;;;;;;;;;5081773;28;20108;-71
2021/06/12 07:57:06;;;;;;;0.00;0.00;;;;;;;;;;5092865;28;20369;-71
2021/06/12 07:59:31;;;;;;;0.00;0.00;;;;;;;;;;5079602;28;20024;-70
2021/06/12 08:01:59;;;;;;;0.00;0.00;;;;;;;;;;5095325;28;20020;-70
2021/06/12 08:04:24;;;;;;;0.00;0.00;;;;;;;;;;5083384;28;20020;-70
2021/06/12 08:06:49;;;;;;;0.00;0.00;;;;;;;;;;5090897;28;20024;-70
2021/06/12 08:09:14;;;;;;;0.00;0.00;;;;;;;;;;5095002;28;20268;-71
2021/06/12 08:11:40;;;;;;;0.00;0.00;;;;;;;;;;5070090;28;20266;-70
2021/06/12 08:14:05;;;;;;;0.00;0.00;;;;;;;;;;5077681;28;20019;-71
2021/06/12 08:16:30;;;;;;;0.00;0.00;;;;;;;;;;5091918;28;20030;-71
2021/06/12 08:18:55;;;;;;;0.00;0.00;;;;;;;;;;5081931;28;20380;-71
2021/06/12 08:21:20;;;;;;;0.00;0.00;;;;;;;;;;5083944;28;20020;-71
2021/06/12 08:23:46;;;;;;;0.00;0.00;;;;;;;;;;5084238;28;20091;-71
2021/06/12 08:26:11;;;;;;;0.00;0.00;;;;;;;;;;5082345;28;20027;-71
2021/06/12 08:28:39;;;;;;;0.00;0.00;;;;;;;;;;5081922;28;20016;-71
2021/06/12 08:31:06;;;;;;;0.00;0.00;;;;;;;;;;5079809;28;20384;-71
2021/06/12 08:33:31;;;;;;;0.00;0.00;;;;;;;;;;5083637;28;20125;-70
2021/06/12 08:35:56;;;;;;;0.00;0.00;;;;;;;;;;5086302;28;20101;-72
2021/06/12 08:38:22;;;;;;;0.00;0.00;;;;;;;;;;5090409;28;20036;-71
2021/06/12 08:40:47;;;;;;;0.00;0.00;;;;;;;;;;5077423;28;20016;-70
2021/06/12 08:43:15;;;;;;;0.00;0.00;;;;;;;;;;5093801;28;20023;-70
2021/06/12 08:45:40;;;;;;;0.00;0.00;;;;;;;;;;5084129;28;20028;-71
2021/06/12 08:48:07;;;;;;;0.00;0.00;;;;;;;;;;5083621;28;20032;-69
2021/06/12 08:50:32;;;;;;;0.00;0.00;;;;;;;;;;5068297;28;20111;-68
2021/06/12 08:52:57;;;;;;;0.00;0.00;;;;;;;;;;5095626;28;20451;-68
2021/06/12 08:55:23;;;;;;;0.00;0.00;;;;;;;;;;5088936;28;20115;-67
2021/06/12 08:57:48;;;;;;;0.00;0.00;;;;;;;;;;5072905;28;20024;-68
2021/06/12 09:00:13;;;;;;;0.00;0.00;;;;;;;;;;5093566;28;20028;-67
2021/06/12 09:03:09;;;;;;;0.00;0.00;;;;;;;;;;5080780;28;20023;-67
2021/06/12 09:05:38;;;;;;;0.00;0.00;;;;;;;;;;5086126;28;20060;-67
2021/06/12 09:08:07;;;;;;;0.00;0.00;;;;;;;;;;5086920;28;20412;-68
2021/06/12 09:10:33;;;;;;;0.00;0.00;;;;;;;;;;5081210;28;20012;-68
2021/06/12 09:13:00;;;;;;;0.00;0.00;;;;;;;;;;5064604;28;20042;-69
2021/06/12 09:15:25;;;;;;;0.00;0.00;;;;;;;;;;5078796;28;20019;-69
2021/06/12 09:17:50;;;;;;;0.00;0.00;;;;;;;;;;5096200;28;20479;-68
2021/06/12 09:20:39;;;;;;;0.00;0.00;;;;;;;;;;5078501;28;20024;-68
2021/06/12 09:23:10;;;;;;;0.00;0.00;;;;;;;;;;5096399;28;20023;-68
2021/06/12 09:25:37;;;;;;;0.00;0.00;;;;;;;;;;5079849;28;20026;-70
2021/06/12 09:28:02;;;;;;;0.00;0.00;;;;;;;;;;5081164;28;20052;-70
2021/06/12 09:30:28;;;;;;;0.00;0.00;;;;;;;;;;5066088;28;20051;-71
2021/06/12 09:32:54;;;;;;;0.00;0.00;;;;;;;;;;5086444;28;20434;-70
2021/06/12 09:35:19;;;;;;;0.00;0.00;;;;;;;;;;5085086;28;20055;-70
2021/06/12 09:37:45;;;;;;;0.00;0.00;;;;;;;;;;5069807;28;20040;-71
2021/06/12 09:40:11;;;;;;;0.00;0.00;;;;;;;;;;5085620;28;20316;-71
2021/06/12 09:42:40;;;;;;;0.00;0.00;;;;;;;;;;5084190;28;20019;-71
2021/06/12 09:45:06;;;;;;;0.00;0.00;;;;;;;;;;5084280;28;20032;-71
2021/06/12 09:47:31;;;;;;;0.00;0.00;;;;;;;;;;5085072;28;20032;-71
2021/06/12 09:49:59;;;;;;;0.00;0.00;;;;;;;;;;5084903;28;20016;-70
2021/06/12 09:52:25;;;;;;;0.00;0.00;;;;;;;;;;5082406;28;20308;-70
2021/06/12 09:54:51;;;;;;;0.00;0.00;;;;;;;;;;5083512;28;20055;-72
2021/06/12 09:57:17;;;;;;;0.00;0.00;;;;;;;;;;5084234;28;20634;-71
2021/06/12 09:59:42;;;;;;;0.00;0.00;;;;;;;;;;5066049;28;20027;-71
2021/06/12 10:02:07;;;;;;;0.00;0.00;;;;;;;;;;5102103;28;20024;-71
2021/06/12 10:04:33;;;;;;;0.00;0.00;;;;;;;;;;5083646;28;20020;-71
2021/06/12 10:06:58;;;;;;;0.00;0.00;;;;;;;;;;5084103;28;20028;-70
2021/06/12 10:09:24;;;;;;;0.00;0.00;;;;;;;;;;5068014;28;20039;-71
2021/06/12 10:11:49;;;;;;;0.00;0.00;;;;;;;;;;5085930;28;20032;-69
2021/06/12 10:14:14;;;;;;;0.00;0.00;;;;;;;;;;5082927;28;20020;-69
2021/06/12 10:16:40;;;;;;;0.00;0.00;;;;;;;;;;5083514;28;20035;-69
2021/06/12 10:19:05;;;;;;;0.00;0.00;;;;;;;;;;5069977;28;20020;-71
2021/06/12 10:21:30;;;;;;;0.00;0.00;;;;;;;;;;5097004;28;20676;-70
2021/06/12 10:23:56;;;;;;;0.00;0.00;;;;;;;;;;5092705;28;20016;-71
2021/06/12 10:26:21;;;;;;;0.00;0.00;;;;;;;;;;5064622;28;20395;-72
2021/06/12 10:28:46;;;;;;;0.00;0.00;;;;;;;;;;5083168;28;20824;-72
2021/06/12 10:31:13;;;;;;;0.00;0.00;;;;;;;;;;5066983;28;20074;-72
2021/06/12 10:33:42;;;;;;;0.00;0.00;;;;;;;;;;5066367;28;20030;-70
2021/06/12 10:36:11;;;;;;;0.00;0.00;;;;;;;;;;5078555;28;20606;-69
2021/06/12 10:38:37;;;;;;;0.00;0.00;;;;;;;;;;5050032;28;20032;-71
2021/06/12 10:41:12;;;;;;;0.00;0.00;;;;;;;;;;5052356;28;20036;-71
2021/06/12 10:43:38;;;;;;;0.00;0.00;;;;;;;;;;5067215;28;20620;-71
2021/06/12 10:46:07;;;;;;;0.00;0.00;;;;;;;;;;5072120;28;20017;-70
2021/06/12 10:48:41;;;;;;;0.00;0.00;;;;;;;;;;5068169;28;20024;-70
2021/06/12 10:51:34;;;;;;;0.00;0.00;;;;;;;;;;5071202;28;20024;-71
2021/06/12 10:54:11;;;;;;;0.00;0.00;;;;;;;;;;5053623;28;20124;-71
2021/06/12 10:56:40;;;;;;;0.00;0.00;;;;;;;;;;5070792;28;20428;-70
2021/06/12 10:59:05;;;;;;;0.00;0.00;;;;;;;;;;5069680;28;20108;-70
2021/06/12 11:01:31;;;;;;;0.00;0.00;;;;;;;;;;5070381;28;20583;-71
2021/06/12 11:06:39;;;;;;;0.00;0.00;;;;;;;;;;5071676;28;20020;-71
2021/06/12 11:09:24;;;;;;;0.00;0.00;;;;;;;;;;5068826;28;20503;-71
2021/06/12 11:11:53;;;;;;;0.00;0.00;;;;;;;;;;5069085;28;20028;-70
2021/06/12 11:14:21;;;;;;;0.00;0.00;;;;;;;;;;5071626;28;20020;-70
2021/06/12 11:19:36;;;;;;;0.00;0.00;;;;;;;;;;5071707;28;20669;-71
2021/06/12 11:22:21;;;;;;;0.00;0.00;;;;;;;;;;5065351;28;20032;-71
2021/06/12 11:24:46;;;;;;;0.00;0.00;;;;;;;;;;5071255;28;20091;-71
2021/06/12 11:27:27;;;;;;;0.00;0.00;;;;;;;;;;5069432;28;20107;-71
2021/06/12 11:30:11;;;;;;;0.00;0.00;;;;;;;;;;5069519;28;20017;-71
2021/06/12 11:32:37;;;;;;;0.00;0.00;;;;;;;;;;5071356;28;20024;-71
2021/06/12 11:35:02;;;;;;;0.00;0.00;;;;;;;;;;5061259;28;20024;-71
2021/06/12 11:37:28;;;;;;;0.00;0.00;;;;;;;;;;5080570;28;20107;-71
2021/06/12 11:39:55;;;;;;;0.00;0.00;;;;;;;;;;5081367;28;20026;-71
2021/06/12 11:42:20;;;;;;;0.00;0.00;;;;;;;;;;5091873;28;20020;-71
2021/06/12 11:44:45;;;;;;;0.00;0.00;;;;;;;;;;5082619;28;20100;-72
2021/06/12 11:47:11;;;;;;;0.00;0.00;;;;;;;;;;5082456;28;20152;-71
2021/06/12 11:49:47;;;;;;;0.00;0.00;;;;;;;;;;5067557;28;20285;-72
2021/06/12 11:52:12;;;;;;;0.00;0.00;;;;;;;;;;5082085;28;20032;-71
2021/06/12 11:54:37;;;;;;;0.00;0.00;;;;;;;;;;5066453;28;20829;-71
2021/06/12 11:57:03;;;;;;;0.03;0.00;;;;;;;;;;5084513;28;20051;-71
2021/06/12 11:59:29;;;;;;;0.00;0.00;;;;;;;;;;5084045;28;20487;-71
2021/06/12 12:01:57;;;;;;;0.00;0.00;;;;;;;;;;5082210;28;20055;-71
2021/06/12 12:04:23;;;;;;;0.00;0.00;;;;;;;;;;5091730;28;20022;-72
2021/06/12 12:06:49;;;;;;;0.00;0.00;;;;;;;;;;5091706;28;20024;-71
2021/06/12 12:09:26;;;;;;;0.00;0.00;;;;;;;;;;5068096;28;20388;-68
2021/06/12 12:11:52;;;;;;;0.00;0.00;;;;;;;;;;5093246;28;20761;-69
2021/06/12 12:14:18;;;;;;;0.00;0.00;;;;;;;;;;5085252;28;20031;-67
2021/06/12 12:16:45;;;;;;;0.00;0.00;;;;;;;;;;5086683;28;20024;-67
2021/06/12 12:19:10;;;;;;;0.00;0.00;;;;;;;;;;5096223;28;20077;-68
2021/06/12 12:21:39;;;;;;;0.00;0.00;;;;;;;;;;5083609;28;20016;-68
2021/06/12 12:24:06;;;;;;;0.00;0.00;;;;;;;;;;5073740;28;20254;-68
2021/06/12 12:26:31;;;;;;;0.00;0.00;;;;;;;;;;5067994;28;20012;-68
2021/06/12 12:28:56;;;;;;;0.00;0.00;;;;;;;;;;5086375;28;20118;-68
2021/06/12 12:31:22;;;;;;;0.00;0.00;;;;;;;;;;5085715;28;20350;-68
2021/06/12 12:33:48;;;;;;;0.00;0.00;;;;;;;;;;5082348;28;20054;-68
2021/06/12 12:36:13;;;;;;;0.00;0.00;;;;;;;;;;5096050;28;20050;-68
2021/06/12 12:38:39;;;;;;;0.00;0.00;;;;;;;;;;5086293;28;20077;-68
2021/06/12 12:41:05;;;;;;;0.00;0.00;;;;;;;;;;5089607;28;20046;-68
2021/06/12 12:43:32;;;;;;;0.00;0.00;;;;;;;;;;5082525;28;20057;-72
2021/06/12 12:45:57;;;;;;;0.00;0.00;;;;;;;;;;5085571;28;20016;-71
2021/06/12 12:48:22;;;;;;;0.00;0.00;;;;;;;;;;5095040;28;20023;-72
2021/06/12 12:50:48;;;;;;;0.00;0.00;;;;;;;;;;5084922;28;20028;-73
2021/06/12 12:53:19;;;;;;;0.00;0.00;;;;;;;;;;5084495;28;20095;-73
2021/06/12 12:55:54;;;;;;;0.00;0.00;;;;;;;;;;5087776;28;20016;-72
2021/06/12 12:58:19;;;;;;;;;;;;;;;;;;5067510;28;20055;-72
2021/06/12 13:00:44;;;;;;;0.00;0.00;;;;;;;;;;5096288;28;19935;-71
2021/06/12 13:03:09;;;;;;;0.00;0.00;;;;;;;;;;5093924;28;20055;-71
2021/06/12 13:05:36;;;;;;;0.00;0.00;;;;;;;;;;5085703;28;20497;-71
2021/06/12 13:08:04;;;;;;;0.00;0.00;;;;;;;;;;5089138;28;20084;-71
2021/06/12 13:10:37;;;;;;;0.00;0.00;;;;;;;;;;5096978;28;20024;-72
2021/06/12 13:13:03;;;;;;;0.00;0.00;;;;;;;;;;5086100;28;20024;-72
2021/06/12 13:15:29;;;;;;;0.00;0.00;;;;;;;;;;5084694;28;20502;-72
2021/06/12 13:18:07;;;;;;;0.00;0.00;;;;;;;;;;5066840;28;20020;-71
2021/06/12 13:20:33;;;;;;;0.00;0.00;;;;;;;;;;5093436;28;20023;-72
2021/06/12 13:22:58;;;;;;;0.00;0.00;;;;;;;;;;5086427;28;20008;-72
2021/06/12 13:25:25;;;;;;;0.00;0.00;;;;;;;;;;5091854;28;20065;-70
2021/06/12 13:27:54;;;;;;;0.00;0.00;;;;;;;;;;5095850;28;20102;-70
2021/06/12 13:30:20;;;;;;;0.00;0.00;;;;;;;;;;5089332;28;20483;-71
2021/06/12 13:32:48;;;;;;;0.00;0.00;;;;;;;;;;5095460;28;20028;-70
2021/06/12 13:35:20;;;;;;;0.00;0.00;;;;;;;;;;5099257;28;20236;-71
2021/06/12 13:37:45;;;;;;;0.00;0.00;;;;;;;;;;5093160;28;20123;-71
2021/06/12 13:40:12;;;;;;;0.00;0.00;;;;;;;;;;5082273;28;20044;-70
2021/06/12 13:42:37;;;;;;;0.00;0.00;;;;;;;;;;5091635;28;20024;-70
2021/06/12 13:45:03;;;;;;;0.00;0.00;;;;;;;;;;5090069;28;20525;-71
2021/06/12 13:47:28;;;;;;;0.00;0.00;;;;;;;;;;5084041;28;20462;-71
2021/06/12 13:49:53;;;;;;;0.00;0.00;;;;;;;;;;5084478;28;20024;-71
2021/06/12 13:52:19;;;;;;;0.00;0.00;;;;;;;;;;5084922;28;20274;-71
2021/06/12 13:54:44;;;;;;;0.00;0.00;;;;;;;;;;5086412;28;20718;-70
2021/06/12 13:57:09;;;;;;;0.00;0.00;;;;;;;;;;5089475;28;20282;-70
2021/06/12 13:59:34;;;;;;;0.00;0.00;;;;;;;;;;5091297;28;20789;-71
2021/06/12 14:02:00;;;;;;;0.00;0.00;;;;;;;;;;5073392;28;20259;-71
2021/06/12 14:04:25;;;;;;;0.00;0.00;;;;;;;;;;5069357;28;20345;-71
2021/06/12 14:06:50;;;;;;;0.00;0.00;;;;;;;;;;5072861;28;20016;-70
2021/06/12 14:09:15;;;;;;;0.00;0.00;;;;;;;;;;5089818;28;20324;-70
2021/06/12 14:11:44;;;;;;;0.00;0.00;;;;;;;;;;5086248;28;20276;-71
2021/06/12 14:14:09;;;;;;;0.00;0.00;;;;;;;;;;5083377;28;20273;-72
2021/06/12 14:16:34;;;;;;;0.00;0.00;;;;;;;;;;5093121;28;20032;-72
2021/06/12 14:19:00;;;;;;;0.00;0.00;;;;;;;;;;5075692;28;20051;-72
2021/06/12 14:21:25;;;;;;;0.00;0.00;;;;;;;;;;5085046;28;20269;-71
2021/06/12 14:23:50;;;;;;;0.00;0.00;;;;;;;;;;5093277;28;20016;-73
2021/06/12 14:26:16;;;;;;;0.00;0.00;;;;;;;;;;5081822;28;20058;-73
2021/06/12 14:28:41;;;;;;;0.00;0.00;;;;;;;;;;5084818;28;20742;-73
2021/06/12 14:31:07;;;;;;;0.00;0.00;;;;;;;;;;5082024;28;20376;-73
2021/06/12 14:33:33;;;;;;;0.00;0.00;;;;;;;;;;5085058;28;20627;-74
2021/06/12 14:35:58;;;;;;;0.00;0.00;;;;;;;;;;5092745;28;20036;-74
2021/06/12 14:38:23;;;;;;;0.00;0.00;;;;;;;;;;5082951;28;20302;-74
2021/06/12 14:40:48;;;;;;;0.00;0.00;;;;;;;;;;5075127;28;20023;-74
2021/06/12 14:43:13;;;;;;;0.00;0.00;;;;;;;;;;5083494;28;20269;-72